Lennoxville, Canada
Current Conditions -  °F | °C
As of 3:19 PM on Thursday 23 Oct 2014 (Local Time) from CYSC Reporting Station
Light Rain Light Rain  
Wind Chill: 40°   Ceiling: 600
Heat Index: 45°   Visibility: 6mi
Dew Point: 43°   Wind: 8mph
Humidity: 93%   Direction: 30°NNE
Pressure: 29.93"   Gusts: NA
Location:  45.37°N, 71.86°W
Report Text: CYSC 231919Z AUTO 03007KT 360V060 6SM -RA BR BKN006 BKN013 OVC050 07/06 A2993 RMK PCPN 1.0MM PAST HR SLP141
Loading
Personal Weather Stations






























Interactive Weather Map
Tropical Storm Tracking
New forecast layout! Learn more

10-Day Weather Forecast

Advertisements
Track Severe Weather on mobile